Time;durP1;ratioP1;P1;durP2;ratioP2;P2;SDS_P1;SDS_P2;PMS_P1;PMS_P2;Temp;Humidity;BMP_temperature;BMP_pressure;BME280_temperature;BME280_humidity;BME280_pressure;Samples;Min_cycle;Max_cycle;Signal;HPM_P1;HPM_P2
2023/01/07 00:01:13;;;;;;;219.40;162.10;;;26.90;99.90;;;;;;5016609;28;20025;-66
2023/01/07 00:03:40;;;;;;;308.15;260.98;;;26.90;99.90;;;;;;5016408;28;20443;-66
2023/01/07 00:06:09;;;;;;;1999.90;869.10;;;27.00;99.90;;;;;;5016378;28;20083;-66
2023/01/07 00:08:38;;;;;;;585.45;365.50;;;27.00;99.90;;;;;;5016191;28;20022;-66
2023/01/07 00:11:09;;;;;;;165.23;124.40;;;26.90;99.90;;;;;;5016325;28;20113;-66
2023/01/07 00:13:36;;;;;;;166.73;124.40;;;27.10;99.90;;;;;;5016233;28;20050;-66
2023/01/07 00:16:09;;;;;;;154.48;119.20;;;27.00;99.90;;;;;;5016257;28;20032;-67
2023/01/07 00:18:36;;;;;;;151.02;119.57;;;26.90;99.90;;;;;;5016166;28;20034;-67
2023/01/07 00:21:06;;;;;;;242.85;199.00;;;27.00;99.90;;;;;;5016134;28;20029;-67
2023/01/07 00:23:34;;;;;;;304.63;247.13;;;26.90;99.90;;;;;;5015438;28;20026;-66
2023/01/07 00:26:09;;;;;;;242.13;184.20;;;27.00;99.90;;;;;;5015818;28;20061;-66
2023/01/07 00:28:38;;;;;;;147.75;118.28;;;26.90;99.90;;;;;;5015845;28;20479;-66
2023/01/07 00:31:09;;;;;;;151.05;111.90;;;27.10;99.90;;;;;;5016094;28;20029;-66
2023/01/07 00:33:45;;;;;;;138.20;108.97;;;27.30;99.90;;;;;;5016065;28;20062;-65
2023/01/07 00:36:12;;;;;;;126.32;102.57;;;27.10;99.90;;;;;;5015849;28;20242;-67
2023/01/07 00:38:39;;;;;;;134.38;103.15;;;27.30;99.90;;;;;;5015613;28;20494;-66
2023/01/07 00:41:05;;;;;;;133.00;101.78;;;27.10;99.90;;;;;;5015766;28;20022;-66
2023/01/07 00:43:32;;;;;;;134.80;107.53;;;27.50;99.90;;;;;;5015847;28;20364;-66
2023/01/07 00:45:58;;;;;;;126.45;97.40;;;27.50;99.90;;;;;;5015742;28;20084;-66
2023/01/07 00:48:25;;;;;;;133.50;104.88;;;27.30;99.90;;;;;;5015606;28;20030;-66
2023/01/07 00:50:52;;;;;;;121.35;95.18;;;27.40;99.90;;;;;;5015769;28;20030;-67
2023/01/07 00:53:19;;;;;;;99.65;81.43;;;27.60;99.90;;;;;;5015684;28;20029;-66
2023/01/07 00:55:48;;;;;;;110.53;86.35;;;27.40;99.90;;;;;;5015340;28;20109;-66
2023/01/07 00:58:19;;;;;;;111.18;90.25;;;27.50;99.90;;;;;;5015524;28;20025;-66
2023/01/07 01:00:46;;;;;;;107.10;86.93;;;27.60;99.90;;;;;;5015314;28;20022;-66
2023/01/07 01:03:13;;;;;;;118.45;91.47;;;27.50;99.90;;;;;;5015562;28;20025;-67
2023/01/07 01:05:40;;;;;;;104.45;86.00;;;27.40;99.90;;;;;;5015293;28;20029;-67
2023/01/07 01:08:08;;;;;;;84.00;66.40;;;27.40;99.90;;;;;;5015269;28;20061;-66
2023/01/07 01:10:34;;;;;;;79.88;64.97;;;27.70;99.90;;;;;;5015234;28;20045;-66
2023/01/07 01:13:01;;;;;;;66.68;52.63;;;27.50;99.90;;;;;;5015105;28;20069;-66
2023/01/07 01:15:27;;;;;;;80.65;56.33;;;27.70;99.90;;;;;;5015277;28;20022;-66
2023/01/07 01:17:54;;;;;;;73.45;57.92;;;27.50;99.90;;;;;;5014982;28;20026;-66
2023/01/07 01:20:21;;;;;;;78.78;58.58;;;27.50;99.90;;;;;;5015052;28;20054;-66
2023/01/07 01:22:48;;;;;;;70.75;54.95;;;27.60;99.90;;;;;;5015090;28;20578;-66
2023/01/07 01:25:14;;;;;;;75.05;54.65;;;27.80;99.90;;;;;;5014926;28;20104;-66
2023/01/07 01:27:41;;;;;;;62.50;46.83;;;28.00;99.90;;;;;;5015037;28;20463;-67
2023/01/07 01:30:09;;;;;;;55.08;41.95;;;27.80;99.90;;;;;;5014725;28;20422;-67
2023/01/07 01:32:36;;;;;;;51.60;40.38;;;27.90;99.90;;;;;;5014871;28;20026;-65
2023/01/07 01:35:02;;;;;;;66.15;49.30;;;28.20;99.90;;;;;;5014533;28;20018;-67
2023/01/07 01:37:29;;;;;;;103.47;78.40;;;28.20;99.90;;;;;;5014735;28;20514;-66
2023/01/07 01:39:55;;;;;;;73.20;57.03;;;28.20;99.90;;;;;;5014562;28;20084;-65
2023/01/07 01:42:24;;;;;;;212.00;161.05;;;28.20;99.90;;;;;;4997023;28;20438;-66
2023/01/07 01:44:53;;;;;;;69.93;50.33;;;28.20;99.90;;;;;;5014790;28;20092;-65
2023/01/07 01:47:20;;;;;;;44.85;32.20;;;28.40;99.90;;;;;;5014341;28;20041;-65
2023/01/07 01:49:53;;;;;;;41.55;30.45;;;28.40;99.90;;;;;;5014328;28;20464;-66
2023/01/07 01:52:23;;;;;;;51.78;37.53;;;28.40;99.90;;;;;;5014484;28;20463;-67
2023/01/07 01:54:59;;;;;;;47.17;35.10;;;28.30;99.90;;;;;;5014165;28;20025;-66
2023/01/07 01:57:27;;;;;;;51.42;35.17;;;28.40;99.90;;;;;;5014422;28;20097;-67
2023/01/07 01:59:56;;;;;;;48.35;32.03;;;28.40;99.90;;;;;;5014239;28;20035;-66
2023/01/07 02:02:32;;;;;;;40.25;29.52;;;28.50;99.90;;;;;;5014356;28;20574;-66
2023/01/07 02:05:00;;;;;;;37.47;28.40;;;28.50;99.90;;;;;;5014231;28;20475;-66
2023/01/07 02:07:26;;;;;;;41.70;26.80;;;28.60;99.90;;;;;;5014172;28;20030;-66
2023/01/07 02:10:21;;;;;;;39.65;24.25;;;28.70;99.90;;;;;;5014213;28;20478;-66
2023/01/07 02:13:16;;;;;;;35.17;23.58;;;28.70;99.90;;;;;;5014079;28;20022;-66
2023/01/07 02:15:54;;;;;;;39.08;24.10;;;28.60;99.90;;;;;;5014002;28;20018;-65
2023/01/07 02:18:22;;;;;;;32.67;22.13;;;28.80;99.90;;;;;;5020999;28;20517;-65
2023/01/07 02:21:17;;;;;;;28.90;20.02;;;28.80;99.90;;;;;;5033402;28;20134;-66
2023/01/07 02:23:53;;;;;;;27.75;17.25;;;29.00;99.90;;;;;;5033632;28;20029;-66
2023/01/07 02:26:40;;;;;;;31.65;19.27;;;28.80;99.90;;;;;;5033309;28;20053;-66
2023/01/07 02:29:09;;;;;;;32.53;21.33;;;28.90;99.90;;;;;;5033624;28;20029;-66
2023/01/07 02:31:47;;;;;;;32.35;19.38;;;29.00;99.90;;;;;;5033524;28;20034;-66
2023/01/07 02:34:19;;;;;;;26.77;19.05;;;28.90;99.90;;;;;;5033565;28;20025;-65
2023/01/07 02:36:50;;;;;;;32.03;19.80;;;29.00;99.90;;;;;;5033232;28;20042;-65
2023/01/07 02:39:37;;;;;;;23.92;18.63;;;29.10;99.90;;;;;;5033693;28;20466;-66
2023/01/07 02:42:33;;;;;;;28.52;19.70;;;29.20;99.90;;;;;;5033344;28;20036;-66
2023/01/07 02:45:18;;;;;;;31.02;18.23;;;29.30;99.90;;;;;;5033458;28;20112;-66
2023/01/07 02:47:53;;;;;;;23.55;15.80;;;29.30;99.90;;;;;;5032759;28;20025;-65
2023/01/07 02:50:20;;;;;;;24.40;16.63;;;29.30;99.90;;;;;;5033253;28;20478;-66
2023/01/07 02:52:46;;;;;;;20.52;14.95;;;29.50;99.90;;;;;;4993820;28;20031;-66
2023/01/07 02:55:18;;;;;;;19.35;13.82;;;29.50;99.90;;;;;;4993856;28;20033;-66
2023/01/07 02:58:19;;;;;;;24.73;15.43;;;29.50;99.90;;;;;;4993857;28;20169;-65
2023/01/07 03:01:07;;;;;;;20.88;15.55;;;29.60;99.90;;;;;;4993957;28;20555;-66
2023/01/07 03:03:50;;;;;;;20.60;13.90;;;29.60;99.90;;;;;;4993946;28;20094;-66
2023/01/07 03:06:38;;;;;;;21.65;14.55;;;29.70;99.90;;;;;;4993632;28;20036;-65
2023/01/07 03:09:11;;;;;;;15.98;12.50;;;29.70;99.90;;;;;;4933674;29;20489;-65
2023/01/07 03:11:58;;;;;;;22.48;14.35;;;29.80;99.90;;;;;;4933241;29;20389;-66
2023/01/07 03:14:37;;;;;;;23.42;14.80;;;29.70;99.90;;;;;;4934194;29;20052;-65
2023/01/07 03:17:08;;;;;;;20.60;13.20;;;29.70;99.90;;;;;;4934135;29;20042;-66
2023/01/07 03:19:39;;;;;;;24.73;15.90;;;29.70;99.90;;;;;;4933431;29;20394;-66
2023/01/07 03:22:09;;;;;;;20.25;13.90;;;29.90;99.90;;;;;;4933648;29;20273;-65
2023/01/07 03:24:37;;;;;;;45.28;33.22;;;29.90;99.90;;;;;;4933308;29;20039;-66
2023/01/07 03:27:05;;;;;;;28.48;19.05;;;29.90;99.90;;;;;;4933670;29;20095;-65
2023/01/07 03:29:34;;;;;;;44.90;25.77;;;29.90;99.90;;;;;;4933415;29;20036;-66
2023/01/07 03:32:17;;;;;;;29.50;18.40;;;30.00;99.90;;;;;;4933701;29;20082;-65
2023/01/07 03:34:44;;;;;;;21.23;16.17;;;30.00;99.90;;;;;;4933744;29;20168;-65
2023/01/07 03:37:14;;;;;;;25.15;16.60;;;30.00;99.90;;;;;;4933911;29;20080;-64
2023/01/07 03:39:43;;;;;;;24.00;15.18;;;30.10;99.90;;;;;;4934306;29;20441;-65
2023/01/07 03:44:59;;;;;;;20.90;15.50;;;30.20;99.90;;;;;;4934085;28;20039;-65
2023/01/07 03:47:27;;;;;;;18.73;14.50;;;30.20;99.90;;;;;;4993389;28;20368;-66
2023/01/07 03:49:54;;;;;;;20.42;14.50;;;30.20;99.90;;;;;;4993408;28;20058;-66
2023/01/07 03:52:20;;;;;;;78.57;49.33;;;30.30;99.90;;;;;;4993547;28;20026;-66
2023/01/07 03:54:47;;;;;;;23.80;16.50;;;30.30;99.90;;;;;;4993237;28;20436;-65
2023/01/07 03:57:13;;;;;;;25.60;16.63;;;30.40;99.90;;;;;;4995859;28;20113;-65
2023/01/07 03:59:40;;;;;;;158.35;80.78;;;30.30;99.90;;;;;;5005163;28;20027;-65
2023/01/07 04:02:06;;;;;;;75.03;42.08;;;30.30;99.90;;;;;;4997401;28;20182;-65
2023/01/07 04:04:33;;;;;;;32.45;19.35;;;30.40;99.90;;;;;;4996073;28;20671;-65
2023/01/07 04:07:00;;;;;;;21.90;14.73;;;30.40;99.90;;;;;;4999199;28;20427;-65
2023/01/07 04:09:26;;;;;;;24.98;14.07;;;30.40;99.90;;;;;;5006570;28;20022;-65
2023/01/07 04:11:53;;;;;;;29.42;16.80;;;30.40;99.90;;;;;;5016511;28;20029;-64
2023/01/07 04:14:19;;;;;;;25.92;17.08;;;30.40;99.90;;;;;;5016478;28;20022;-65
2023/01/07 04:16:46;;;;;;;20.83;14.63;;;30.40;99.90;;;;;;4997438;28;20029;-65
2023/01/07 04:19:12;;;;;;;19.75;11.98;;;30.40;99.90;;;;;;5002851;28;20187;-65
2023/01/07 04:21:39;;;;;;;15.45;12.05;;;30.40;99.90;;;;;;4998846;28;20033;-65
2023/01/07 04:24:06;;;;;;;28.25;19.27;;;30.40;99.90;;;;;;4996496;28;20022;-65
2023/01/07 04:26:32;;;;;;;26.80;17.13;;;30.40;99.90;;;;;;4996539;28;20029;-64
2023/01/07 04:28:59;;;;;;;27.27;18.90;;;30.50;99.90;;;;;;4996453;28;20026;-64
2023/01/07 04:31:26;;;;;;;23.20;17.90;;;30.50;99.90;;;;;;4996372;28;20435;-64
2023/01/07 04:33:52;;;;;;;28.00;20.63;;;30.50;99.90;;;;;;4996592;28;20042;-65
2023/01/07 04:36:19;;;;;;;28.85;21.73;;;30.60;99.90;;;;;;5001335;28;20084;-64
2023/01/07 04:38:45;;;;;;;34.03;22.33;;;30.60;99.90;;;;;;5025559;28;20037;-65
2023/01/07 04:41:12;;;;;;;33.22;21.55;;;30.70;99.90;;;;;;5025472;28;20657;-63
2023/01/07 04:43:38;;;;;;;30.38;22.77;;;30.60;99.90;;;;;;5023617;28;20026;-64
2023/01/07 04:46:05;;;;;;;32.58;22.58;;;30.60;99.90;;;;;;5021345;28;20018;-65
2023/01/07 04:48:32;;;;;;;32.13;21.92;;;30.60;99.90;;;;;;5024296;28;20053;-66
2023/01/07 04:50:58;;;;;;;28.00;20.33;;;30.70;99.90;;;;;;5025423;28;20387;-66
2023/01/07 04:53:25;;;;;;;31.08;21.33;;;30.70;99.90;;;;;;5022953;28;20022;-64
2023/01/07 04:55:52;;;;;;;33.45;24.55;;;30.70;99.90;;;;;;5022060;28;20021;-64
2023/01/07 04:58:19;;;;;;;23.70;19.45;;;30.70;99.90;;;;;;5019602;28;20026;-64
2023/01/07 05:00:46;;;;;;;21.73;16.50;;;30.80;99.90;;;;;;5023849;28;20048;-66
2023/01/07 05:03:12;;;;;;;24.80;16.95;;;30.70;99.90;;;;;;5023848;28;20024;-64
2023/01/07 05:05:39;;;;;;;21.70;16.42;;;30.70;99.90;;;;;;5022941;28;20573;-64
2023/01/07 05:08:06;;;;;;;20.10;16.23;;;30.80;99.90;;;;;;5031219;28;20056;-64
2023/01/07 05:10:32;;;;;;;22.80;16.92;;;30.80;99.90;;;;;;5034118;28;20021;-65
2023/01/07 05:12:59;;;;;;;21.55;17.17;;;30.80;99.90;;;;;;5014356;28;20475;-64
2023/01/07 05:15:25;;;;;;;22.48;18.58;;;30.80;99.90;;;;;;5005352;28;20027;-64
2023/01/07 05:17:52;;;;;;;19.65;15.93;;;30.80;99.90;;;;;;4995570;28;20014;-64
2023/01/07 05:20:18;;;;;;;19.98;14.43;;;30.80;99.90;;;;;;4995480;28;20391;-64
2023/01/07 05:22:45;;;;;;;17.25;13.82;;;30.80;99.90;;;;;;4995815;28;20030;-65
2023/01/07 05:25:11;;;;;;;22.25;15.05;;;30.80;99.90;;;;;;4995619;28;20073;-64
2023/01/07 05:27:38;;;;;;;22.00;14.30;;;30.80;99.90;;;;;;4995646;28;20081;-65
2023/01/07 05:30:05;;;;;;;18.08;13.35;;;30.80;99.90;;;;;;4995334;28;20037;-65
2023/01/07 05:32:32;;;;;;;14.25;11.13;;;30.80;99.90;;;;;;5002198;28;20014;-65
2023/01/07 05:34:58;;;;;;;14.85;11.55;;;30.80;99.90;;;;;;5015033;28;20022;-65
2023/01/07 05:37:25;;;;;;;17.73;12.93;;;30.80;99.90;;;;;;5014937;28;20126;-64
2023/01/07 05:39:51;;;;;;;18.45;12.98;;;30.80;99.90;;;;;;5014611;28;20036;-65
2023/01/07 05:42:18;;;;;;;47.42;29.75;;;30.80;99.90;;;;;;5015227;28;20391;-64
2023/01/07 05:44:50;;;;;;;63.92;45.40;;;30.80;99.90;;;;;;5014835;28;20030;-64
2023/01/07 05:47:16;;;;;;;26.73;19.27;;;30.80;99.90;;;;;;5014585;28;20506;-64
2023/01/07 05:49:43;;;;;;;28.48;22.27;;;30.80;99.90;;;;;;5014510;28;20088;-64
2023/01/07 05:52:10;;;;;;;28.58;20.48;;;30.80;99.90;;;;;;5014681;28;20084;-64
2023/01/07 05:54:36;;;;;;;39.97;27.52;;;30.80;99.90;;;;;;5014608;28;20105;-63
2023/01/07 05:57:03;;;;;;;19.48;13.75;;;30.80;99.90;;;;;;5014659;28;20479;-69
2023/01/07 05:59:29;;;;;;;18.25;12.18;;;30.80;99.90;;;;;;5014475;28;20037;-63
2023/01/07 06:01:56;;;;;;;48.20;35.83;;;30.80;99.90;;;;;;5014396;28;20037;-62
2023/01/07 06:04:22;;;;;;;59.85;37.58;;;30.70;99.90;;;;;;5014310;28;20296;-63
2023/01/07 06:06:49;;;;;;;17.48;13.13;;;30.70;99.90;;;;;;5014354;28;20038;-64
2023/01/07 06:09:15;;;;;;;25.38;16.90;;;30.80;99.90;;;;;;5014339;28;20030;-63
2023/01/07 06:11:42;;;;;;;35.00;20.73;;;30.90;99.90;;;;;;5014292;28;20025;-65
2023/01/07 06:14:08;;;;;;;33.80;26.90;;;30.90;99.90;;;;;;5014475;28;20037;-64
2023/01/07 06:16:35;;;;;;;36.90;30.00;;;30.90;99.90;;;;;;5014617;28;20471;-63
2023/01/07 06:19:01;;;;;;;22.80;19.90;;;30.90;99.90;;;;;;5020535;28;20087;-61
2023/01/07 06:21:28;;;;;;;24.02;15.70;;;31.00;99.90;;;;;;5026024;28;20021;-62
2023/01/07 06:23:55;;;;;;;20.45;13.48;;;31.00;99.90;;;;;;5032145;28;20025;-62
2023/01/07 06:26:22;;;;;;;17.35;13.07;;;31.00;99.90;;;;;;5018670;28;20021;-64
2023/01/07 06:28:51;;;;;;;16.83;12.88;;;31.00;99.90;;;;;;5020799;28;20021;-64
2023/01/07 06:31:17;;;;;;;22.40;16.63;;;31.00;99.90;;;;;;5022707;28;20478;-63
2023/01/07 06:33:44;;;;;;;17.33;13.43;;;31.00;99.90;;;;;;5021420;28;20416;-63
2023/01/07 06:36:11;;;;;;;16.35;12.57;;;31.00;99.90;;;;;;5021506;28;20528;-62
2023/01/07 06:38:37;;;;;;;20.70;14.27;;;31.00;99.90;;;;;;5022646;28;20405;-62
2023/01/07 06:41:04;;;;;;;17.25;12.20;;;31.00;99.90;;;;;;5021222;28;20449;-63
2023/01/07 06:43:30;;;;;;;16.85;11.35;;;31.00;99.90;;;;;;5022104;28;20056;-64
2023/01/07 06:45:57;;;;;;;15.70;11.55;;;31.10;99.90;;;;;;5022580;28;20025;-63
2023/01/07 06:48:23;;;;;;;17.38;12.63;;;31.10;99.90;;;;;;5021140;28;20117;-63
2023/01/07 06:50:50;;;;;;;18.17;12.35;;;31.10;99.90;;;;;;5021727;28;20100;-63
2023/01/07 06:53:16;;;;;;;18.52;11.18;;;31.10;99.90;;;;;;5022891;28;20025;-63
2023/01/07 06:55:48;;;;;;;12.45;10.48;;;31.20;99.90;;;;;;5019118;28;20021;-63
2023/01/07 06:58:15;;;;;;;15.88;10.77;;;31.20;99.90;;;;;;5022302;28;20460;-64
2023/01/07 07:00:42;;;;;;;18.05;11.98;;;31.20;99.90;;;;;;5018034;28;20549;-64
2023/01/07 07:03:08;;;;;;;14.75;10.88;;;31.30;99.90;;;;;;5021757;28;20032;-63
2023/01/07 07:05:35;;;;;;;11.93;9.27;;;31.30;99.90;;;;;;5025853;28;20479;-63
2023/01/07 07:08:03;;;;;;;15.30;10.88;;;31.20;99.90;;;;;;5026461;28;20040;-62
2023/01/07 07:10:30;;;;;;;16.17;11.13;;;31.30;99.90;;;;;;5018809;28;20030;-62
2023/01/07 07:12:56;;;;;;;16.05;11.90;;;31.30;99.90;;;;;;5021653;28;20014;-63
2023/01/07 07:15:23;;;;;;;17.00;12.50;;;31.30;99.90;;;;;;5019763;28;20018;-62
2023/01/07 07:17:49;;;;;;;17.67;13.02;;;31.20;99.90;;;;;;5020947;28;20403;-64
2023/01/07 07:20:16;;;;;;;28.55;21.73;;;31.20;99.90;;;;;;5022385;28;20028;-64
2023/01/07 07:22:45;;;;;;;37.20;24.60;;;31.20;99.90;;;;;;5020996;28;20060;-63
2023/01/07 07:25:12;;;;;;;24.30;19.50;;;31.20;99.90;;;;;;5022333;28;20029;-64
2023/01/07 07:27:38;;;;;;;25.67;19.10;;;31.20;99.90;;;;;;5022611;28;20084;-64
2023/01/07 07:30:07;;;;;;;44.65;34.60;;;31.20;99.90;;;;;;5020838;28;20018;-64
2023/01/07 07:32:33;;;;;;;27.42;19.67;;;31.30;99.90;;;;;;5021963;28;20021;-63
2023/01/07 07:35:00;;;;;;;31.63;18.95;;;31.30;99.90;;;;;;5026063;28;20026;-64
2023/01/07 07:37:26;;;;;;;22.80;15.30;;;31.20;99.90;;;;;;5024656;28;20195;-62
2023/01/07 07:39:53;;;;;;;25.20;17.92;;;31.20;99.90;;;;;;5025839;28;20029;-62
2023/01/07 07:42:19;;;;;;;73.50;51.80;;;31.20;99.90;;;;;;5026437;28;20030;-62
2023/01/07 07:44:46;;;;;;;26.63;16.98;;;31.20;99.90;;;;;;5024842;28;20028;-62
2023/01/07 07:47:12;;;;;;;31.20;21.23;;;31.20;99.90;;;;;;5024698;28;20029;-63
2023/01/07 07:49:39;;;;;;;31.10;19.75;;;31.20;99.90;;;;;;5018042;28;20046;-62
2023/01/07 07:52:05;;;;;;;32.33;19.85;;;31.20;99.90;;;;;;5027023;28;20116;-63
2023/01/07 07:54:32;;;;;;;33.75;20.70;;;31.20;99.90;;;;;;5026744;28;20512;-64
2023/01/07 07:56:59;;;;;;;22.02;16.95;;;31.20;99.90;;;;;;5027496;28;20061;-62
2023/01/07 07:59:25;;;;;;;51.72;37.47;;;31.30;99.90;;;;;;5024993;28;20079;-62
2023/01/07 08:01:52;;;;;;;35.63;23.73;;;31.30;99.90;;;;;;5026449;28;20481;-63
2023/01/07 08:04:18;;;;;;;42.95;28.45;;;31.30;99.90;;;;;;5023661;28;20093;-63
2023/01/07 08:06:45;;;;;;;24.90;15.23;;;31.40;99.90;;;;;;5028672;28;20026;-63
2023/01/07 08:09:12;;;;;;;29.58;15.90;;;31.40;99.90;;;;;;5020310;28;20026;-63
2023/01/07 08:11:38;;;;;;;33.97;20.48;;;31.40;99.90;;;;;;5016524;28;20478;-64
2023/01/07 08:14:05;;;;;;;23.38;14.20;;;31.30;99.90;;;;;;5016994;28;20084;-62
2023/01/07 08:16:31;;;;;;;25.08;16.90;;;31.30;99.90;;;;;;5016804;28;20026;-62
2023/01/07 08:18:58;;;;;;;69.78;44.17;;;31.30;99.90;;;;;;5021068;28;20037;-63
2023/01/07 08:21:24;;;;;;;36.17;26.65;;;31.30;99.90;;;;;;5021152;28;20033;-65
2023/01/07 08:23:51;;;;;;;40.70;30.10;;;31.30;99.90;;;;;;5024391;28;20025;-64
2023/01/07 08:26:17;;;;;;;36.67;24.15;;;31.30;99.90;;;;;;5024229;28;20034;-63
2023/01/07 08:28:44;;;;;;;38.72;28.50;;;31.30;99.90;;;;;;5025939;28;20025;-63
2023/01/07 08:31:10;;;;;;;48.35;33.10;;;31.30;99.90;;;;;;5023358;28;20434;-64
2023/01/07 08:33:38;;;;;;;123.75;103.95;;;31.30;99.90;;;;;;5025904;28;20300;-64
2023/01/07 08:36:07;;;;;;;851.55;735.17;;;31.40;99.90;;;;;;5024889;28;20017;-63
2023/01/07 08:38:34;;;;;;;571.58;488.90;;;31.40;99.90;;;;;;5024185;28;20379;-64
2023/01/07 08:41:01;;;;;;;1232.80;858.53;;;31.40;99.90;;;;;;5026206;28;20489;-64
2023/01/07 08:43:27;;;;;;;1694.75;999.90;;;31.40;99.90;;;;;;5024795;28;20112;-63
2023/01/07 08:45:54;;;;;;;542.08;453.35;;;31.50;99.90;;;;;;5022694;28;20037;-64
2023/01/07 08:48:21;;;;;;;977.78;812.25;;;31.50;99.90;;;;;;5021232;28;20080;-65
2023/01/07 08:50:51;;;;;;;1999.90;999.90;;;31.50;99.90;;;;;;5032441;28;20446;-65
2023/01/07 08:53:18;;;;;;;1999.90;999.90;;;31.50;99.90;;;;;;5024104;28;20064;-64
2023/01/07 08:55:45;;;;;;;1155.20;815.47;;;31.50;99.90;;;;;;5025813;28;20017;-68
2023/01/07 08:58:11;;;;;;;516.70;403.50;;;31.50;99.90;;;;;;5023848;28;20050;-66
2023/01/07 09:00:39;;;;;;;510.20;381.23;;;31.50;99.90;;;;;;5024089;28;20022;-66
2023/01/07 09:03:05;;;;;;;586.30;425.50;;;31.50;99.90;;;;;;5023458;28;20057;-65
2023/01/07 09:05:32;;;;;;;454.63;330.40;;;31.60;99.90;;;;;;5023783;28;20527;-66
2023/01/07 09:08:01;;;;;;;391.30;241.27;;;31.60;99.90;;;;;;5020797;28;20025;-67
2023/01/07 09:10:28;;;;;;;594.70;412.52;;;31.60;99.90;;;;;;5024503;28;20043;-69
2023/01/07 09:12:55;;;;;;;335.20;221.23;;;31.60;99.90;;;;;;5019415;28;20021;-69
2023/01/07 09:15:21;;;;;;;184.68;127.70;;;31.60;99.90;;;;;;5023934;28;20029;-66
2023/01/07 09:17:48;;;;;;;80.15;54.25;;;31.50;99.90;;;;;;5023173;28;20029;-68
2023/01/07 09:20:14;;;;;;;89.10;59.00;;;31.50;99.90;;;;;;5024290;28;20033;-66
2023/01/07 09:22:41;;;;;;;86.40;60.88;;;31.50;99.90;;;;;;5020941;28;20029;-65
2023/01/07 09:25:08;;;;;;;216.95;161.70;;;31.50;99.90;;;;;;5024690;28;20025;-67
2023/01/07 09:27:36;;;;;;;60.67;42.25;;;31.50;99.90;;;;;;5023536;28;20018;-69
2023/01/07 09:30:03;;;;;;;173.40;108.57;;;31.50;99.90;;;;;;5005362;28;20531;-68
2023/01/07 09:32:29;;;;;;;445.60;317.60;;;31.50;99.90;;;;;;5019827;28;20021;-65
2023/01/07 09:34:56;;;;;;;411.67;260.55;;;31.50;99.90;;;;;;5023033;28;20022;-69
2023/01/07 09:37:23;;;;;;;370.60;226.68;;;31.50;99.90;;;;;;5024243;28;20052;-68
2023/01/07 09:39:49;;;;;;;198.30;122.90;;;31.40;99.90;;;;;;5023191;28;20426;-70
2023/01/07 09:42:44;;;;;;;128.75;85.72;;;31.50;99.90;;;;;;5024581;28;20033;-69
2023/01/07 09:45:22;;;;;;;90.03;58.25;;;31.40;99.90;;;;;;4944112;29;20397;-71
2023/01/07 09:47:53;;;;;;;94.03;59.63;;;31.50;99.90;;;;;;4943195;29;20123;-71
2023/01/07 09:50:38;;;;;;;79.70;48.42;;;31.40;99.90;;;;;;4944075;29;20550;-70
2023/01/07 09:53:12;;;;;;;80.57;52.20;;;31.40;99.90;;;;;;4945265;29;20042;-72
2023/01/07 09:55:41;;;;;;;93.07;64.88;;;31.40;99.90;;;;;;4944140;28;20028;-68
2023/01/07 09:58:19;;;;;;;49.55;33.83;;;31.40;99.90;;;;;;4942998;29;20111;-70
2023/01/07 10:01:17;;;;;;;62.70;41.00;;;31.40;99.90;;;;;;4943531;29;20635;-69
2023/01/07 10:04:23;;;;;;;55.55;39.92;;;31.30;99.90;;;;;;4887717;29;20037;-71
2023/01/07 10:06:57;;;;;;;67.10;49.63;;;31.20;99.90;;;;;;4887603;29;20101;-72
2023/01/07 10:09:46;;;;;;;49.45;36.92;;;31.20;99.90;;;;;;4886647;29;20032;-70
2023/01/07 10:12:25;;;;;;;47.47;32.67;;;31.20;99.90;;;;;;4885942;29;20412;-69
2023/01/07 10:15:07;;;;;;;39.63;27.95;;;31.20;99.90;;;;;;4886540;29;20033;-70
2023/01/07 10:17:46;;;;;;;65.05;50.95;;;31.20;99.90;;;;;;4885000;29;20108;-71
2023/01/07 10:20:23;;;;;;;89.45;66.60;;;31.10;99.90;;;;;;4885946;29;20121;-71
2023/01/07 10:23:14;;;;;;;59.25;43.97;;;31.10;99.90;;;;;;4885123;29;20029;-71
2023/01/07 10:25:52;;;;;;;54.53;39.10;;;31.20;99.90;;;;;;4885002;29;20045;-71
2023/01/07 10:28:36;;;;;;;49.65;35.72;;;31.20;99.90;;;;;;4885740;29;20526;-70
2023/01/07 10:31:05;;;;;;;63.15;42.00;;;31.20;99.90;;;;;;4883854;29;20503;-71
2023/01/07 10:33:33;;;;;;;63.58;41.05;;;31.10;99.90;;;;;;4877410;29;20025;-64
2023/01/07 10:36:20;;;;;;;106.22;58.85;;;31.10;99.90;;;;;;4870778;29;20124;-64
2023/01/07 10:39:09;;;;;;;79.20;51.38;;;31.10;99.90;;;;;;4858964;29;20091;-64
2023/01/07 10:41:59;;;;;;;51.78;34.63;;;31.10;99.90;;;;;;4849801;29;20064;-64
2023/01/07 10:44:35;;;;;;;83.82;52.53;;;31.00;99.90;;;;;;4884945;29;20486;-62
2023/01/07 10:47:10;;;;;;;79.30;50.53;;;31.00;99.90;;;;;;4922556;29;20055;-64
2023/01/07 10:49:59;;;;;;;59.80;42.20;;;31.00;99.90;;;;;;4953254;29;20046;-64
2023/01/07 10:53:05;;;;;;;34.30;26.83;;;31.00;99.90;;;;;;4953073;29;20062;-62
2023/01/07 10:55:40;;;;;;;39.88;26.85;;;31.00;99.90;;;;;;4953196;29;20094;-64
2023/01/07 10:58:10;;;;;;;44.17;27.92;;;30.90;99.90;;;;;;4953188;29;20023;-65
2023/01/07 11:00:39;;;;;;;50.40;33.13;;;30.80;99.90;;;;;;4953307;29;20030;-64
2023/01/07 11:03:18;;;;;;;52.80;31.13;;;30.80;99.90;;;;;;4953353;29;20078;-64
2023/01/07 11:05:47;;;;;;;52.85;31.55;;;30.80;99.90;;;;;;4953176;29;20120;-65
2023/01/07 11:08:36;;;;;;;59.75;37.35;;;30.70;99.90;;;;;;4953563;28;20035;-64
2023/01/07 11:11:04;;;;;;;182.05;97.95;;;30.70;99.90;;;;;;4956704;29;20401;-64
2023/01/07 11:13:35;;;;;;;75.95;38.10;;;30.60;99.90;;;;;;4956631;29;20070;-65
2023/01/07 11:16:09;;;;;;;35.72;17.23;;;30.10;99.90;;;;;;4956639;29;20077;-70
2023/01/07 11:18:55;;;;;;;23.83;9.40;;;29.50;99.90;;;;;;4956451;29;20042;-66
2023/01/07 11:21:43;;;;;;;22.27;8.45;;;29.00;99.90;;;;;;4949859;29;20070;-65
2023/01/07 11:24:23;;;;;;;28.15;10.10;;;28.80;99.90;;;;;;4961347;28;20529;-65
2023/01/07 11:26:50;;;;;;;31.20;8.07;;;28.50;99.90;;;;;;4997698;28;20022;-63
2023/01/07 11:29:40;;;;;;;40.65;14.02;;;27.80;99.90;;;;;;4997734;28;20467;-66
2023/01/07 11:32:20;;;;;;;13.43;5.53;;;27.20;99.90;;;;;;4997971;28;20498;-66
2023/01/07 11:34:51;;;;;;;12.32;5.30;;;27.10;99.90;;;;;;4997874;28;20045;-66
2023/01/07 11:37:39;;;;;;;26.83;12.30;;;27.00;99.90;;;;;;5000625;28;20042;-67
2023/01/07 11:40:14;;;;;;;53.53;32.80;;;27.20;99.90;;;;;;5017437;28;20032;-66
2023/01/07 11:42:53;;;;;;;44.00;27.48;;;27.30;99.90;;;;;;5017223;28;20033;-66
2023/01/07 11:45:21;;;;;;;62.70;42.25;;;27.50;99.90;;;;;;5017145;28;20080;-66
2023/01/07 11:47:54;;;;;;;18.17;9.43;;;27.60;99.90;;;;;;5017119;28;20044;-67
2023/01/07 11:50:36;;;;;;;21.15;11.95;;;27.70;99.90;;;;;;5017157;28;20120;-66
2023/01/07 11:53:19;;;;;;;6.38;2.75;;;27.80;99.90;;;;;;5017552;28;20037;-68
2023/01/07 11:55:56;;;;;;;7.18;3.10;;;27.70;99.90;;;;;;5017301;28;20029;-68
2023/01/07 11:58:24;;;;;;;21.83;11.35;;;27.70;99.90;;;;;;5017695;28;20026;-65
2023/01/07 12:01:14;;;;;;;12.63;6.32;;;27.40;99.90;;;;;;5018101;28;20026;-67
2023/01/07 12:03:44;;;;;;;17.00;6.50;;;27.50;99.90;;;;;;5018089;28;20026;-68
2023/01/07 12:06:24;;;;;;;13.75;4.15;;;27.50;99.90;;;;;;5017492;28;20076;-68
2023/01/07 12:08:59;;;;;;;24.42;15.98;;;27.50;99.90;;;;;;5024431;28;20410;-68
2023/01/07 12:11:38;;;;;;;29.42;18.88;;;27.60;99.90;;;;;;5035524;28;20028;-66
2023/01/07 12:14:27;;;;;;;37.95;24.33;;;27.70;99.90;;;;;;5017880;28;20022;-66
2023/01/07 12:16:55;;;;;;;20.98;13.95;;;27.70;99.90;;;;;;5017915;28;20017;-66
2023/01/07 12:19:23;;;;;;;9.05;4.25;;;27.70;99.90;;;;;;5017280;28;20038;-65
2023/01/07 12:22:13;;;;;;;12.35;7.93;;;27.70;99.90;;;;;;5017125;28;20117;-67
2023/01/07 12:24:48;;;;;;;7.97;4.50;;;27.50;99.90;;;;;;5009741;28;20494;-65
2023/01/07 12:27:14;;;;;;;15.73;10.35;;;27.50;99.90;;;;;;5004955;28;20277;-66
2023/01/07 12:30:11;;;;;;;14.13;9.90;;;27.50;99.90;;;;;;5014629;28;20101;-66
2023/01/07 12:32:41;;;;;;;14.60;8.05;;;27.50;99.90;;;;;;5010308;28;20029;-65
2023/01/07 12:35:23;;;;;;;15.80;9.18;;;27.60;99.90;;;;;;5017611;28;20022;-64
2023/01/07 12:37:56;;;;;;;17.60;8.73;;;27.70;99.90;;;;;;5013149;28;20057;-65
2023/01/07 12:40:29;;;;;;;13.15;8.18;;;27.70;99.90;;;;;;5016696;28;20372;-66
2023/01/07 12:43:17;;;;;;;9.23;5.88;;;27.70;99.90;;;;;;5015929;28;20109;-66
2023/01/07 12:46:08;;;;;;;10.00;4.60;;;27.70;99.90;;;;;;4961160;28;20874;-71
2023/01/07 12:48:39;;;;;;;8.88;4.32;;;27.80;99.90;;;;;;4960065;28;20090;-68